Time;durP1;ratioP1;P1;durP2;ratioP2;P2;SDS_P1;SDS_P2;PMS_P1;PMS_P2;Temp;Humidity;BMP_temperature;BMP_pressure;BME280_temperature;BME280_humidity;BME280_pressure;Samples;Min_cycle;Max_cycle;Signal;HPM_P1;HPM_P2
2023/10/13 00:01:59;;;;;;;;;;;;;;;16.86;53.94;101262.41;4941720;29;1215;-50
2023/10/13 00:04:25;;;;;;;;;;;;;;;16.67;53.81;101254.53;4945651;29;1080;-48
2023/10/13 00:06:54;;;;;;;;;;;;;;;16.70;54.26;101265.00;4960790;28;1131;-49
2023/10/13 00:09:24;;;;;;;;;;;;;;;17.83;52.54;101255.78;4960434;29;1969;-47
2023/10/13 00:11:49;;;;;;;;;;;;;;;17.05;53.90;101251.81;4960293;29;1144;-48
2023/10/13 00:14:18;;;;;;;;;;;;;;;16.82;53.77;101244.78;4947678;29;1192;-47
2023/10/13 00:17:00;;;;;;;;;;;;;;;16.65;53.79;101240.28;4948668;29;1053;-50
2023/10/13 00:19:37;;;;;;;;;;;;;;;17.33;53.53;101242.34;4948166;29;1022;-48
2023/10/13 00:22:09;;;;;;;;;;;;;;;17.35;53.06;101242.94;4947443;29;1127;-43
2023/10/13 00:24:42;;;;;;;;;;;;;;;16.94;53.85;101245.44;4960345;29;1065;-46
2023/10/13 00:27:29;;;;;;;;;;;;;;;16.71;53.77;101250.19;4959551;29;1037;-44
2023/10/13 00:30:14;;;;;;;;;;;;;;;16.95;54.05;101255.34;4958621;29;1902;-45
2023/10/13 00:32:43;;;;;;;;;;;;;;;17.41;53.13;101247.34;4948965;29;1524;-45
2023/10/13 00:35:15;;;;;;;;;;;;;;;16.90;53.97;101244.31;4958386;29;1093;-49
2023/10/13 00:37:43;;;;;;;;;;;;;;;16.69;54.10;101238.66;4958835;29;1083;-47
2023/10/13 00:42:53;;;;;;;;;;;;;;;17.23;53.43;101234.06;4955307;29;986;-48
2023/10/13 00:45:19;;;;;;;;;;;;;;;16.89;53.98;101237.19;4947533;29;1037;-48
2023/10/13 00:47:56;;;;;;;;;;;;;;;16.66;53.83;101230.94;4945706;29;1156;-48
2023/10/13 00:50:23;;;;;;;;;;;;;;;16.55;53.75;101241.00;4958408;29;1915;-45
2023/10/13 00:52:50;;;;;;;;;;;;;;;16.53;54.13;101232.19;4957008;29;1087;-47
2023/10/13 00:55:17;;;;;;;;;;;;;;;17.77;52.42;101227.44;4950240;29;1109;-48
2023/10/13 00:57:43;;;;;;;;;;;;;;;17.01;53.63;101236.97;4954257;29;1145;-48
2023/10/13 01:03:06;;;;;;;;;;;;;;;16.60;53.69;101234.72;4936588;29;1186;-46
2023/10/13 01:05:32;;;;;;;;;;;;;;;16.51;53.89;101228.06;4958865;29;1080;-47
2023/10/13 01:08:01;;;;;;;;;;;;;;;17.68;52.72;101234.53;4945758;29;1116;-45
2023/10/13 01:10:27;;;;;;;;;;;;;;;17.25;53.31;101223.63;4958524;29;1887;-48
2023/10/13 01:12:54;;;;;;;;;;;;;;;16.86;53.77;101212.97;4957396;28;1114;-48
2023/10/13 01:15:22;;;;;;;;;;;;;;;16.63;53.93;101214.97;4959090;29;1069;-48
2023/10/13 01:17:48;;;;;;;;;;;;;;;16.51;53.88;101208.84;4946658;29;1095;-48
2023/10/13 01:20:26;;;;;;;;;;;;;;;16.84;54.17;101220.63;4958407;29;1113;-49
2023/10/13 01:22:55;;;;;;;;;;;;;;;17.55;52.72;101211.94;4940431;29;1023;-48
2023/10/13 01:25:27;;;;;;;;;;;;;;;16.96;53.73;101215.78;4955023;29;1122;-45
2023/10/13 01:27:53;;;;;;;;;;;;;;;16.73;53.82;101220.56;4959209;29;1058;-49
2023/10/13 01:30:27;;;;;;;;;;;;;;;16.55;53.89;101210.81;4950818;29;1907;-49
2023/10/13 01:32:53;;;;;;;;;;;;;;;17.09;53.87;101204.31;4958104;29;999;-47
2023/10/13 01:35:24;;;;;;;;;;;;;;;17.45;52.78;101214.66;4958766;29;1166;-48
2023/10/13 01:37:50;;;;;;;;;;;;;;;16.96;53.69;101213.03;4959006;29;1033;-47
2023/10/13 01:40:19;;;;;;;;;;;;;;;16.72;53.90;101213.41;4939819;29;1265;-45
2023/10/13 01:42:55;;;;;;;;;;;;;;;16.91;54.10;101221.25;4951744;29;993;-49
2023/10/13 01:45:28;;;;;;;;;;;;;;;17.60;52.47;101214.72;4945222;29;1108;-49
2023/10/13 01:47:54;;;;;;;;;;;;;;;17.03;53.50;101219.13;4945992;29;1200;-49
2023/10/13 01:50:29;;;;;;;;;;;;;;;16.73;53.85;101214.22;4952635;29;1907;-49
2023/10/13 01:53:11;;;;;;;;;;;;;;;16.72;53.91;101201.59;4943005;29;908;-48
2023/10/13 01:55:43;;;;;;;;;;;;;;;17.62;52.56;101208.94;4938090;29;906;-47
2023/10/13 01:58:15;;;;;;;;;;;;;;;16.99;53.61;101207.00;4951253;29;1131;-44
2023/10/13 02:00:42;;;;;;;;;;;;;;;16.81;53.58;101205.50;4938348;29;1297;-44
2023/10/13 02:03:14;;;;;;;;;;;;;;;16.60;53.81;101210.00;4952453;29;1078;-46
2023/10/13 02:05:43;;;;;;;;;;;;;;;17.15;53.66;101212.59;4940684;29;1351;-49
2023/10/13 02:08:10;;;;;;;;;;;;;;;17.37;52.79;101216.00;4958235;29;1105;-48
2023/10/13 02:10:35;;;;;;;;;;;;;;;16.86;53.53;101210.22;4956846;29;1974;-46
2023/10/13 02:13:03;;;;;;;;;;;;;;;16.65;53.99;101215.56;4945807;29;1097;-49
2023/10/13 02:15:34;;;;;;;;;;;;;;;16.52;53.81;101213.25;4960285;28;1278;-44
2023/10/13 02:18:00;;;;;;;;;;;;;;;16.74;54.04;101216.69;4954036;29;1057;-47
2023/10/13 02:20:30;;;;;;;;;;;;;;;17.68;52.32;101201.53;4957015;29;1241;-48
2023/10/13 02:22:56;;;;;;;;;;;;;;;16.99;53.60;101212.50;4949445;29;1192;-49
2023/10/13 02:25:42;;;;;;;;;;;;;;;16.67;54.05;101210.63;4954052;29;1200;-48
2023/10/13 02:28:09;;;;;;;;;;;;;;;16.90;54.22;101211.34;4945030;29;1251;-50
2023/10/13 02:30:44;;;;;;;;;;;;;;;17.57;52.21;101217.16;4950328;29;1973;-50
2023/10/13 02:33:13;;;;;;;;;;;;;;;16.95;53.36;101216.06;4951692;29;1262;-47
2023/10/13 02:35:43;;;;;;;;;;;;;;;16.74;53.69;101210.41;4958288;29;1026;-46
2023/10/13 02:38:11;;;;;;;;;;;;;;;16.53;53.72;101209.41;4945733;29;1176;-49
2023/10/13 02:40:37;;;;;;;;;;;;;;;16.43;53.60;101205.50;4957995;29;1262;-48
2023/10/13 02:43:04;;;;;;;;;;;;;;;17.27;53.40;101210.47;4956490;29;1062;-46
2023/10/13 02:45:37;;;;;;;;;;;;;;;17.20;53.30;101207.13;4947451;29;1627;-46
2023/10/13 02:48:17;;;;;;;;;;;;;;;16.91;53.32;101207.50;4957663;29;1073;-47
2023/10/13 02:50:45;;;;;;;;;;;;;;;16.53;53.94;101203.94;4957722;28;1914;-48
2023/10/13 02:53:17;;;;;;;;;;;;;;;17.03;53.68;101202.63;4950835;29;1042;-47
2023/10/13 02:55:53;;;;;;;;;;;;;;;17.33;52.70;101206.63;4951060;29;1326;-45
2023/10/13 02:58:20;;;;;;;;;;;;;;;16.87;53.63;101209.94;4949952;29;927;-45
2023/10/13 03:00:46;;;;;;;;;;;;;;;16.58;54.14;101198.47;4956523;29;1239;-48
2023/10/13 03:03:14;;;;;;;;;;;;;;;16.84;54.17;101195.91;4948320;29;1156;-42
2023/10/13 03:05:42;;;;;;;;;;;;;;;17.56;52.47;101196.28;4955081;28;1149;-46
2023/10/13 03:08:09;;;;;;;;;;;;;;;16.95;53.68;101200.41;4947399;29;1534;-46
2023/10/13 03:10:39;;;;;;;;;;;;;;;16.71;54.03;101200.75;4955677;29;1918;-50
2023/10/13 03:13:07;;;;;;;;;;;;;;;17.08;54.00;101199.94;4957529;29;1033;-47
2023/10/13 03:15:35;;;;;;;;;;;;;;;17.39;52.89;101207.47;4957401;29;1389;-48
2023/10/13 03:18:01;;;;;;;;;;;;;;;16.94;53.82;101209.72;4953314;29;1594;-48
2023/10/13 03:20:32;;;;;;;;;;;;;;;16.71;54.17;101197.19;4951398;28;1085;-47
2023/10/13 03:22:58;;;;;;;;;;;;;;;16.53;53.96;101209.41;4948831;29;931;-46
2023/10/13 03:25:28;;;;;;;;;;;;;;;16.81;54.27;101200.00;4941247;29;1081;-45
2023/10/13 03:30:21;;;;;;;;;;;;;;;16.89;54.11;101195.97;4940158;29;1906;-49
2023/10/13 03:32:53;;;;;;;;;;;;;;;16.76;53.83;101192.56;4944517;28;1125;-47
2023/10/13 03:35:25;;;;;;;;;;;;;;;16.56;54.07;101195.16;4945314;29;1022;-49
2023/10/13 03:37:51;;;;;;;;;;;;;;;17.13;53.87;101190.06;4959854;28;1101;-48
2023/10/13 03:42:57;;;;;;;;;;;;;;;16.75;54.31;101185.41;4959419;28;1239;-44
2023/10/13 03:45:24;;;;;;;;;;;;;;;16.59;54.13;101189.13;4961200;29;1013;-45
2023/10/13 03:47:51;;;;;;;;;;;;;;;17.64;52.78;101190.25;4960673;28;1108;-48
2023/10/13 03:50:29;;;;;;;;;;;;;;;17.22;53.66;101193.94;4954080;28;1906;-46
2023/10/13 03:52:57;;;;;;;;;;;;;;;16.82;54.19;101190.69;4955067;29;1391;-51
2023/10/13 03:55:26;;;;;;;;;;;;;;;16.70;54.19;101187.28;4944055;29;1101;-49
2023/10/13 03:57:52;;;;;;;;;;;;;;;16.49;54.08;101186.31;4940391;29;1003;-48
2023/10/13 04:00:25;;;;;;;;;;;;;;;17.51;53.48;101191.56;4953836;29;1081;-47
2023/10/13 04:03:38;;;;;;;;;;;;;;;17.16;53.69;101187.59;4941754;29;1042;-48
2023/10/13 04:16:14;;;;;;;;;;;;;;;16.85;54.14;101192.88;4960129;29;1046;-47
2023/10/13 04:18:50;;;;;;;;;;;;;;;16.64;54.19;101202.91;4959120;29;1698;-50
2023/10/13 04:21:36;;;;;;;;;;;;;;;16.53;54.05;101198.44;4939404;29;1430;-49
2023/10/13 04:30:24;;;;;;;;;;;;;;;16.69;54.07;101215.84;4952478;29;1973;-46
2023/10/13 04:32:32;;;;;;;;;;;;;;;16.55;54.11;101227.28;4954249;29;1494;-49
2023/10/13 04:35:08;;;;;;;;;;;;;;;16.71;54.35;101217.25;4955759;29;1088;-49
2023/10/13 04:37:48;;;;;;;;;;;;;;;17.52;53.41;101226.25;4940977;29;1092;-47
2023/10/13 04:40:14;;;;;;;;;;;;;;;16.58;52.82;101217.69;4941191;29;1015;-47
2023/10/13 04:42:49;;;;;;;;;;;;;;;17.93;52.93;101226.38;4954219;29;1125;-47
2023/10/13 04:50:46;;;;;;;;;;;;;;;17.48;52.96;101227.06;4959626;29;1906;-48
2023/10/13 04:59:15;;;;;;;;;;;;;;;17.16;52.36;101230.75;4950591;29;1069;-48
2023/10/13 05:04:21;;;;;;;;;;;;;;;17.07;51.20;101235.91;4959170;29;1088;-47
2023/10/13 06:31:01;;;;;;;;;;;;;;;16.99;48.35;101294.94;4938870;29;1903;-50
2023/10/13 06:33:29;;;;;;;;;;;;;;;17.79;48.85;101305.84;4952342;29;907;-53
2023/10/13 06:35:56;;;;;;;;;;;;;;;17.24;48.79;101302.50;4948294;29;1013;-51
2023/10/13 06:38:22;;;;;;;;;;;;;;;16.98;48.05;101289.69;4957747;29;1250;-49
2023/10/13 06:40:50;;;;;;;;;;;;;;;17.83;48.87;101286.84;4957890;29;1060;-48
2023/10/13 06:43:16;;;;;;;;;;;;;;;17.49;49.37;101295.50;4944595;29;1696;-49
2023/10/13 06:45:42;;;;;;;;;;;;;;;17.12;48.75;101292.81;4946038;29;876;-48
2023/10/13 06:48:12;;;;;;;;;;;;;;;17.48;49.03;101284.78;4954613;29;1103;-49
2023/10/13 06:50:41;;;;;;;;;;;;;;;17.48;49.03;101284.78;4947889;29;1942;-50
2023/10/13 06:53:07;;;;;;;;;;;;;;;17.26;47.98;101277.50;4951396;29;1134;-50
2023/10/13 06:55:36;;;;;;;;;;;;;;;16.96;47.63;101284.47;4963926;28;1071;-49
2023/10/13 06:58:02;;;;;;;;;;;;;;;17.20;47.65;101297.81;4955999;29;1100;-49
2023/10/13 07:00:34;;;;;;;;;;;;;;;17.67;48.66;101304.38;4957768;29;1201;-51
2023/10/13 07:03:05;;;;;;;;;;;;;;;17.14;48.31;101298.88;4957633;29;1065;-48
2023/10/13 07:05:41;;;;;;;;;;;;;;;17.02;47.54;101288.91;4957451;29;1085;-50
2023/10/13 07:08:06;;;;;;;;;;;;;;;17.92;48.26;101289.94;4957260;29;1112;-51
2023/10/13 07:10:44;;;;;;;;;;;;;;;17.22;48.68;101295.63;4946466;28;1910;-49
2023/10/13 07:13:10;;;;;;;;;;;;;;;17.11;47.68;101292.00;4961708;29;1204;-48
2023/10/13 07:15:44;;;;;;;;;;;;;;;16.99;47.44;101294.94;4960949;29;1136;-49
2023/10/13 07:18:22;;;;;;;;;;;;;;;17.55;48.44;101290.88;4961109;28;1105;-50
2023/10/13 07:20:48;;;;;;;;;;;;;;;17.15;47.85;101292.28;4957882;29;1140;-48
2023/10/13 07:23:20;;;;;;;;;;;;;;;17.97;48.24;101294.66;4949883;29;1029;-50
2023/10/13 07:25:53;;;;;;;;;;;;;;;17.32;48.60;101287.47;4960568;29;1058;-50
2023/10/13 07:28:18;;;;;;;;;;;;;;;17.12;48.09;101292.81;4960719;29;1041;-47
2023/10/13 07:31:08;;;;;;;;;;;;;;;17.78;48.25;101293.19;4961272;29;1914;-49
2023/10/13 07:33:35;;;;;;;;;;;;;;;17.39;48.29;101295.44;4949499;29;1460;-47
2023/10/13 07:36:01;;;;;;;;;;;;;;;17.09;48.02;101292.25;4961093;29;1041;-49
2023/10/13 07:38:30;;;;;;;;;;;;;;;17.01;47.14;101287.25;4960925;29;1056;-46
2023/10/13 07:41:06;;;;;;;;;;;;;;;16.84;46.82;101286.53;4960998;29;1082;-49
2023/10/13 07:43:32;;;;;;;;;;;;;;;17.46;48.15;101282.31;4960552;28;1118;-50
2023/10/13 07:46:06;;;;;;;;;;;;;;;17.13;47.73;101278.00;4959026;28;901;-47
2023/10/13 07:48:33;;;;;;;;;;;;;;;17.00;47.14;101284.75;4960816;29;1002;-50
2023/10/13 07:51:01;;;;;;;;;;;;;;;18.01;47.31;101276.50;4960441;29;1910;-47
2023/10/13 07:53:29;;;;;;;;;;;;;;;17.21;48.24;101281.06;4960290;29;1052;-50
2023/10/13 07:55:55;;;;;;;;;;;;;;;17.04;47.32;101269.41;4960393;29;1114;-52
2023/10/13 07:58:26;;;;;;;;;;;;;;;17.79;48.10;101269.22;4957765;29;1225;-46
2023/10/13 08:01:06;;;;;;;;;;;;;;;17.22;48.06;101270.88;4960628;29;1105;-46
2023/10/13 08:03:43;;;;;;;;;;;;;;;17.19;47.01;101268.69;4959380;29;1023;-47
2023/10/13 08:08:39;;;;;;;;;;;;;;;17.61;48.24;101270.53;4956386;29;1041;-47
2023/10/13 08:11:11;;;;;;;;;;;;;;;17.16;47.85;101267.28;4954808;29;1917;-50
2023/10/13 08:13:38;;;;;;;;;;;;;;;17.08;47.11;101270.53;4960073;29;1011;-45
2023/10/13 08:16:08;;;;;;;;;;;;;;;18.29;47.32;101264.16;4970215;28;1091;-46
2023/10/13 08:18:35;;;;;;;;;;;;;;;17.47;48.08;101261.13;4968145;28;1068;-47
2023/10/13 08:21:04;;;;;;;;;;;;;;;17.23;47.55;101265.13;4952639;29;1014;-47
2023/10/13 08:26:56;;;;;;;;;;;;;;;17.65;48.01;101257.91;4947008;29;1398;-47
2023/10/13 08:32:05;;;;;;;;;;;;;;;17.08;47.40;101257.63;4958296;28;1978;-49
2023/10/13 08:34:38;;;;;;;;;;;;;;;16.99;46.91;101261.97;4961903;28;1226;-47
2023/10/13 08:43:13;;;;;;;;;;;;;;;17.22;48.26;101265.38;4959363;29;1069;-47
2023/10/13 08:48:07;;;;;;;;;;;;;;;16.99;46.99;101264.72;4957804;29;1105;-48
2023/10/13 08:50:52;;;;;;;;;;;;;;;16.86;46.78;101270.63;4946845;28;1902;-48
2023/10/13 08:53:28;;;;;;;;;;;;;;;17.90;47.27;101264.59;4958720;29;1105;-46
2023/10/13 08:56:17;;;;;;;;;;;;;;;17.27;47.80;101262.69;4947003;29;1200;-51
2023/10/13 09:07:38;;;;;;;;;;;;;;;17.81;47.38;101257.97;4959291;28;1143;-51
2023/10/13 09:12:35;;;;;;;;;;;;;;;16.98;47.23;101243.81;4948137;29;1051;-51
2023/10/13 09:17:39;;;;;;;;;;;;;;;17.23;48.33;101256.06;4951030;29;1095;-50
2023/10/13 09:25:34;;;;;;;;;;;;;;;17.42;48.40;101251.75;4958919;29;1081;-55
2023/10/13 09:28:00;;;;;;;;;;;;;;;17.22;47.60;101247.00;4958546;29;1034;-52
2023/10/13 09:30:28;;;;;;;;;;;;;;;17.03;47.30;101245.78;4958803;29;1969;-53
2023/10/13 09:33:08;;;;;;;;;;;;;;;16.87;47.29;101242.06;4957328;28;1049;-49
2023/10/13 09:35:36;;;;;;;;;;;;;;;17.82;47.62;101243.13;4958702;29;1436;-49
2023/10/13 09:38:02;;;;;;;;;;;;;;;17.45;48.13;101237.47;4945493;28;1069;-52
2023/10/13 09:42:56;;;;;;;;;;;;;;;17.12;47.35;101237.88;4958047;29;1009;-50
2023/10/13 09:45:32;;;;;;;;;;;;;;;17.02;46.86;101233.94;4946033;29;1185;-53
2023/10/13 09:48:06;;;;;;;;;;;;;;;16.93;46.82;101235.56;4958783;29;1184;-52
2023/10/13 09:50:37;;;;;;;;;;;;;;;17.73;47.62;101229.88;4958370;29;1969;-52
2023/10/13 09:53:05;;;;;;;;;;;;;;;17.24;47.79;101224.75;4958908;29;1018;-53
2023/10/13 09:55:33;;;;;;;;;;;;;;;17.17;47.84;101224.16;4958395;28;1165;-52
2023/10/13 09:58:14;;;;;;;;;;;;;;;17.09;47.23;101207.06;4950510;29;1116;-51
2023/10/13 10:01:07;;;;;;;;;;;;;;;17.02;46.82;101209.22;4945958;29;1101;-49
2023/10/13 10:06:05;;;;;;;;;;;;;;;17.48;47.02;101192.13;4968864;28;1279;-54
2023/10/13 10:08:34;;;;;;;;;;;;;;;17.63;48.06;101194.13;4958455;29;1070;-52
2023/10/13 10:11:15;;;;;;;;;;;;;;;17.31;47.75;101203.34;4945631;29;1967;-50
2023/10/13 10:13:41;;;;;;;;;;;;;;;17.11;47.25;101198.56;4958244;29;1116;-51
2023/10/13 10:16:14;;;;;;;;;;;;;;;17.03;46.77;101199.91;4957893;29;1193;-50
2023/10/13 10:18:40;;;;;;;;;;;;;;;17.79;47.27;101204.06;4958313;29;1109;-48
2023/10/13 10:21:10;;;;;;;;;;;;;;;17.62;47.94;101195.19;4958044;29;1259;-49
2023/10/13 10:23:38;;;;;;;;;;;;;;;17.28;47.78;101190.13;4953237;29;1046;-52
2023/10/13 10:26:19;;;;;;;;;;;;;;;17.23;46.97;101195.59;4958307;28;1189;-50
2023/10/13 10:28:45;;;;;;;;;;;;;;;17.04;46.87;101189.72;4960934;28;1128;-53
2023/10/13 10:31:19;;;;;;;;;;;;;;;16.95;46.67;101194.09;4963861;28;1914;-49
2023/10/13 10:33:46;;;;;;;;;;;;;;;16.96;46.15;101198.47;4945062;29;1113;-49
2023/10/13 10:36:14;;;;;;;;;;;;;;;17.97;47.08;101192.84;4958368;29;1104;-51
2023/10/13 10:38:58;;;;;;;;;;;;;;;17.28;48.02;101199.19;4958003;29;1006;-49
2023/10/13 10:41:40;;;;;;;;;;;;;;;17.13;47.05;101198.31;4944905;29;1034;-49
2023/10/13 10:44:47;;;;;;;;;;;;;;;17.43;47.34;101190.19;4945278;28;1043;-50
2023/10/13 10:47:31;;;;;;;;;;;;;;;17.42;48.09;101188.53;4946826;29;1234;-50
2023/10/13 10:50:06;;;;;;;;;;;;;;;17.23;47.26;101187.34;4961330;29;1902;-49
2023/10/13 10:52:36;;;;;;;;;;;;;;;17.07;47.20;101179.03;4949156;29;959;-50
2023/10/13 10:55:06;;;;;;;;;;;;;;;16.96;46.97;101174.59;4960527;29;1149;-49
2023/10/13 10:57:37;;;;;;;;;;;;;;;17.00;46.61;101181.19;4961056;29;1177;-49
2023/10/13 11:00:14;;;;;;;;;;;;;;;17.57;47.31;101186.91;4970560;28;1119;-49
2023/10/13 11:02:40;;;;;;;;;;;;;;;17.19;47.41;101180.75;4958496;29;1247;-46
2023/10/13 11:05:16;;;;;;;;;;;;;;;17.08;47.02;101172.47;4957000;29;938;-47
2023/10/13 11:07:45;;;;;;;;;;;;;;;18.02;47.30;101177.16;4960728;28;1022;-50
2023/10/13 11:10:26;;;;;;;;;;;;;;;17.45;47.68;101179.75;4959618;29;1903;-49
2023/10/13 11:12:56;;;;;;;;;;;;;;;17.18;47.34;101173.56;4962085;28;1102;-48
2023/10/13 11:15:33;;;;;;;;;;;;;;;17.04;47.01;101176.81;4971226;28;1112;-48
2023/10/13 11:17:59;;;;;;;;;;;;;;;17.05;46.38;101166.66;4967116;28;1040;-51
2023/10/13 11:20:33;;;;;;;;;;;;;;;17.02;46.36;101162.50;4967803;28;1157;-49
2023/10/13 11:22:59;;;;;;;;;;;;;;;16.89;46.30;101157.53;4948254;29;847;-49
2023/10/13 11:25:34;;;;;;;;;;;;;;;17.62;46.99;101154.75;4959858;29;1085;-45
2023/10/13 11:28:27;;;;;;;;;;;;;;;17.23;47.61;101154.38;4961179;29;1072;-49
2023/10/13 11:30:52;;;;;;;;;;;;;;;17.00;47.31;101164.72;4960591;29;1906;-51
2023/10/13 11:33:20;;;;;;;;;;;;;;;17.01;46.86;101160.88;4959965;28;1030;-49
2023/10/13 11:35:49;;;;;;;;;;;;;;;17.89;47.10;101170.25;4947982;29;1046;-47
2023/10/13 11:38:26;;;;;;;;;;;;;;;17.35;47.69;101171.47;4960617;29;1025;-47
2023/10/13 11:44:11;;;;;;;;;;;;;;;17.07;46.64;101169.97;4960225;29;1065;-49
2023/10/13 11:49:32;;;;;;;;;;;;;;;17.42;47.49;101166.53;4953419;29;935;-47
2023/10/13 11:52:08;;;;;;;;;;;;;;;17.13;47.30;101165.34;4957460;29;1906;-48
2023/10/13 11:54:36;;;;;;;;;;;;;;;17.03;46.97;101172.41;4959634;29;1038;-51
2023/10/13 11:57:01;;;;;;;;;;;;;;;17.18;46.94;101165.34;4959479;28;1080;-48
2023/10/13 11:59:28;;;;;;;;;;;;;;;17.68;47.69;101166.59;4959452;29;835;-50
2023/10/13 12:04:54;;;;;;;;;;;;;;;17.12;47.20;101171.91;4960027;29;1097;-50
2023/10/13 12:07:21;;;;;;;;;;;;;;;17.03;46.78;101166.94;4950754;29;986;-51
2023/10/13 12:12:22;;;;;;;;;;;;;;;17.38;47.74;101172.84;4959468;28;959;-51
2023/10/13 12:14:56;;;;;;;;;;;;;;;17.25;47.30;101179.66;4959939;29;1026;-53
2023/10/13 12:17:31;;;;;;;;;;;;;;;17.06;47.11;101174.63;4959214;29;1062;-54
2023/10/13 12:19:57;;;;;;;;;;;;;;;17.04;46.49;101179.56;4966091;28;1540;-50
2023/10/13 12:22:35;;;;;;;;;;;;;;;16.91;46.37;101183.63;4959843;28;1017;-52
2023/10/13 12:25:04;;;;;;;;;;;;;;;17.97;46.78;101188.16;4951138;29;1069;-52
2023/10/13 12:27:45;;;;;;;;;;;;;;;17.28;47.83;101182.69;4956183;29;1030;-51
2023/10/13 12:30:16;;;;;;;;;;;;;;;17.08;47.14;101175.19;4959621;29;1922;-51
2023/10/13 12:32:53;;;;;;;;;;;;;;;17.01;46.64;101176.53;4946394;29;983;-51
2023/10/13 12:35:35;;;;;;;;;;;;;;;17.92;46.98;101177.13;4946577;28;1001;-51
2023/10/13 12:38:16;;;;;;;;;;;;;;;17.78;47.87;101180.41;4948916;29;1074;-52
2023/10/13 12:49:04;;;;;;;;;;;;;;;17.35;46.67;101171.47;4940162;29;975;-54
2023/10/13 12:54:13;;;;;;;;;;;;;;;17.03;46.27;101175.16;4971609;28;1428;-50
2023/10/13 12:56:42;;;;;;;;;;;;;;;17.08;46.04;101182.59;4962228;28;1380;-52
2023/10/13 12:59:13;;;;;;;;;;;;;;;17.01;45.70;101174.63;4952779;29;990;-52
2023/10/13 13:01:42;;;;;;;;;;;;;;;16.95;45.95;101167.44;4956982;29;1064;-51
2023/10/13 13:04:11;;;;;;;;;;;;;;;17.77;47.38;101178.72;4958858;28;998;-47
2023/10/13 13:06:37;;;;;;;;;;;;;;;17.23;48.08;101173.63;4958465;28;1141;-49
2023/10/13 13:09:02;;;;;;;;;;;;;;;17.09;47.27;101165.03;4957095;29;1053;-50
2023/10/13 13:11:31;;;;;;;;;;;;;;;17.00;46.89;101161.97;4950311;29;1902;-50
2023/10/13 13:13:56;;;;;;;;;;;;;;;16.94;46.40;101160.28;4951945;29;1041;-46
2023/10/13 13:16:30;;;;;;;;;;;;;;;16.88;46.38;101161.31;4958272;29;1149;-48
2023/10/13 13:18:55;;;;;;;;;;;;;;;16.96;46.33;101174.59;4958366;29;1089;-47
2023/10/13 13:21:24;;;;;;;;;;;;;;;17.39;47.42;101174.47;4958883;29;1053;-47
2023/10/13 13:23:55;;;;;;;;;;;;;;;17.06;47.14;101174.63;4957571;29;1376;-48
2023/10/13 13:26:21;;;;;;;;;;;;;;;17.01;47.37;101177.38;4959548;28;1212;-48
2023/10/13 13:28:50;;;;;;;;;;;;;;;17.49;48.04;101182.78;4958070;28;1127;-48
2023/10/13 13:31:16;;;;;;;;;;;;;;;17.17;47.56;101177.44;4958096;29;1911;-48
2023/10/13 13:33:44;;;;;;;;;;;;;;;17.01;47.05;101182.88;4958468;29;1239;-49
2023/10/13 13:36:16;;;;;;;;;;;;;;;17.01;46.44;101179.28;4963697;28;1114;-50
2023/10/13 13:38:45;;;;;;;;;;;;;;;16.97;46.05;101175.41;4960050;28;1033;-48
2023/10/13 13:41:17;;;;;;;;;;;;;;;16.81;46.19;101174.47;4957332;29;1014;-49
2023/10/13 13:43:55;;;;;;;;;;;;;;;17.65;46.83;101180.91;4958338;29;1069;-51
2023/10/13 13:46:33;;;;;;;;;;;;;;;17.12;47.12;101182.91;4958425;29;1019;-49
2023/10/13 13:49:01;;;;;;;;;;;;;;;17.03;46.54;101179.84;4947079;29;891;-51
2023/10/13 13:51:31;;;;;;;;;;;;;;;16.87;46.26;101176.13;4957736;29;1911;-46
2023/10/13 13:53:57;;;;;;;;;;;;;;;17.04;46.77;101175.97;4957911;29;1021;-47
2023/10/13 13:56:28;;;;;;;;;;;;;;;17.78;47.52;101183.16;4957840;29;1444;-48
2023/10/13 13:58:54;;;;;;;;;;;;;;;17.26;47.78;101179.41;4957518;29;1017;-51
2023/10/13 14:01:21;;;;;;;;;;;;;;;17.00;47.48;101180.34;4953315;29;1152;-48
2023/10/13 14:03:47;;;;;;;;;;;;;;;16.98;46.73;101174.31;4957466;29;1037;-47
2023/10/13 14:06:28;;;;;;;;;;;;;;;16.90;46.33;101181.13;4958012;29;1185;-50
2023/10/13 14:08:59;;;;;;;;;;;;;;;17.31;46.78;101184.09;4957188;29;1081;-49
2023/10/13 14:14:04;;;;;;;;;;;;;;;17.02;47.16;101181.75;4957927;29;1172;-51
2023/10/13 14:16:33;;;;;;;;;;;;;;;16.97;46.52;101186.38;4944714;29;1006;-47
2023/10/13 14:18:58;;;;;;;;;;;;;;;17.82;47.64;101180.66;4957957;28;1177;-46
2023/10/13 14:21:24;;;;;;;;;;;;;;;17.28;47.81;101177.22;4957800;29;1009;-48
2023/10/13 14:23:53;;;;;;;;;;;;;;;17.16;47.00;101178.53;4950279;28;986;-48
2023/10/13 14:26:20;;;;;;;;;;;;;;;17.06;46.35;101176.56;4948566;29;1042;-50
2023/10/13 14:29:19;;;;;;;;;;;;;;;16.99;46.02;101178.72;4962230;28;1083;-50
2023/10/13 14:31:39;;;;;;;;;;;;;;;17.71;46.95;101185.34;4954458;29;1914;-47
2023/10/13 14:34:04;;;;;;;;;;;;;;;17.09;47.59;101181.50;4957343;29;1471;-49
2023/10/13 14:36:34;;;;;;;;;;;;;;;17.12;46.44;101178.22;4957139;29;1223;-47
2023/10/13 14:39:00;;;;;;;;;;;;;;;16.98;46.08;101174.31;4955642;28;1038;-50
2023/10/13 14:41:25;;;;;;;;;;;;;;;17.81;46.95;101180.94;4945737;29;998;-51
2023/10/13 14:43:51;;;;;;;;;;;;;;;17.32;47.51;101182.16;4944133;29;1038;-52
2023/10/13 14:46:17;;;;;;;;;;;;;;;17.16;46.76;101178.53;4957392;29;739;-53
2023/10/13 14:48:43;;;;;;;;;;;;;;;17.06;46.31;101187.53;4946050;29;1092;-53
2023/10/13 14:51:16;;;;;;;;;;;;;;;16.90;46.28;101197.59;4956859;28;1977;-50
2023/10/13 14:53:43;;;;;;;;;;;;;;;17.78;46.62;101191.41;4956295;29;1036;-50
2023/10/13 14:56:12;;;;;;;;;;;;;;;17.32;47.67;101187.66;4956820;29;1123;-51
2023/10/13 14:58:44;;;;;;;;;;;;;;;17.08;47.20;101193.59;4957056;28;1061;-53
2023/10/13 15:01:10;;;;;;;;;;;;;;;16.99;46.60;101208.94;4955562;29;1016;-47
2023/10/13 15:03:37;;;;;;;;;;;;;;;17.76;47.08;101210.09;4959129;28;1218;-49
2023/10/13 15:06:03;;;;;;;;;;;;;;;17.28;47.44;101196.44;4956769;28;1366;-53
2023/10/13 15:08:29;;;;;;;;;;;;;;;17.13;47.05;101198.31;4950977;28;1076;-51
2023/10/13 15:10:54;;;;;;;;;;;;;;;16.96;46.58;101199.31;4950410;29;1982;-52
2023/10/13 15:13:22;;;;;;;;;;;;;;;16.97;46.10;101197.38;4952965;28;1101;-50
2023/10/13 15:15:48;;;;;;;;;;;;;;;17.67;46.77;101206.22;4957418;28;1033;-50
2023/10/13 15:18:13;;;;;;;;;;;;;;;17.44;47.43;101196.50;4954116;29;1033;-48
2023/10/13 15:20:39;;;;;;;;;;;;;;;17.16;47.10;101204.06;4966278;28;1180;-49
2023/10/13 15:23:05;;;;;;;;;;;;;;;17.09;46.58;101203.50;4963026;28;1072;-52
2023/10/13 15:25:41;;;;;;;;;;;;;;;16.92;46.22;101214.66;4968022;28;1147;-49
2023/10/13 15:28:09;;;;;;;;;;;;;;;16.85;45.87;101205.81;4952154;29;1385;-53
2023/10/13 15:33:19;;;;;;;;;;;;;;;17.38;47.63;101209.41;4972274;28;1121;-47
2023/10/13 15:35:45;;;;;;;;;;;;;;;17.11;47.06;101206.81;4956895;29;1180;-48
2023/10/13 15:38:14;;;;;;;;;;;;;;;17.02;46.33;101206.47;4967757;28;1117;-51
2023/10/13 15:40:43;;;;;;;;;;;;;;;16.89;46.21;101213.28;4960477;28;1105;-53
2023/10/13 15:43:09;;;;;;;;;;;;;;;16.80;45.83;101220.31;4957566;28;1152;-48
2023/10/13 15:45:44;;;;;;;;;;;;;;;16.68;45.88;101220.50;4967295;28;1377;-52
2023/10/13 15:48:11;;;;;;;;;;;;;;;17.88;46.79;101228.25;4957894;28;1163;-51
2023/10/13 15:50:40;;;;;;;;;;;;;;;17.23;47.29;101228.56;4959369;29;1979;-48
2023/10/13 15:53:06;;;;;;;;;;;;;;;17.03;46.82;101223.81;4941307;29;1058;-50
2023/10/13 15:55:36;;;;;;;;;;;;;;;17.33;47.22;101233.28;4941765;29;1073;-54
2023/10/13 15:58:01;;;;;;;;;;;;;;;17.44;47.61;101241.31;4948080;28;1177;-55
2023/10/13 16:00:27;;;;;;;;;;;;;;;17.10;47.25;101241.69;4955095;29;1049;-55
2023/10/13 16:02:54;;;;;;;;;;;;;;;17.02;46.43;101239.44;4943832;28;1050;-55
2023/10/13 16:05:22;;;;;;;;;;;;;;;16.99;46.08;101237.22;4959840;29;1089;-49
2023/10/13 16:07:50;;;;;;;;;;;;;;;17.67;47.21;101232.88;4951962;28;2147;-56
2023/10/13 16:10:16;;;;;;;;;;;;;;;17.31;47.56;101225.31;4957222;28;2016;-52
2023/10/13 16:12:44;;;;;;;;;;;;;;;17.08;47.07;101226.56;4958368;29;1834;-51
2023/10/13 16:15:13;;;;;;;;;;;;;;;17.34;46.94;101229.47;4946338;29;1829;-49
2023/10/13 16:17:39;;;;;;;;;;;;;;;17.49;47.30;101242.44;4956675;29;1794;-51
2023/10/13 16:20:12;;;;;;;;;;;;;;;17.10;47.01;101249.13;4951848;29;2409;-51